sensor_id;sensor_type;location;lat;lon;timestamp;pressure;altitude;pressure_sealevel;temperature;humidity
55656;BME280;41530;52.382;5.270;2024-03-23T00:52:16;101276.38;;;16.26;50.59
55656;BME280;41530;52.382;5.270;2024-03-23T00:54:41;101281.88;;;16.34;50.84
55656;BME280;41530;52.382;5.270;2024-03-23T00:57:07;101278.63;;;16.31;50.62
55656;BME280;41530;52.382;5.270;2024-03-23T00:59:33;101278.50;;;16.32;50.38
55656;BME280;41530;52.382;5.270;2024-03-23T01:02:00;101273.31;;;16.31;51.09
55656;BME280;41530;52.382;5.270;2024-03-23T01:04:25;101278.63;;;16.31;50.50
55656;BME280;41530;52.382;5.270;2024-03-23T01:06:51;101250.50;;;16.19;50.74
55656;BME280;41530;52.382;5.270;2024-03-23T01:09:17;101258.19;;;16.22;50.46
55656;BME280;41530;52.382;5.270;2024-03-23T01:11:42;101256.94;;;16.26;50.50
55656;BME280;41530;52.382;5.270;2024-03-23T01:14:08;101241.69;;;16.18;50.55
55656;BME280;41530;52.382;5.270;2024-03-23T01:16:34;101226.44;;;16.11;50.57
55656;BME280;41530;52.382;5.270;2024-03-23T01:18:59;101245.66;;;16.24;50.73
55656;BME280;41530;52.382;5.270;2024-03-23T01:21:25;101236.13;;;16.21;50.53
55656;BME280;41530;52.382;5.270;2024-03-23T01:23:51;101223.78;;;16.11;50.43
55656;BME280;41530;52.382;5.270;2024-03-23T01:26:16;101213.44;;;16.08;50.39
55656;BME280;41530;52.382;5.270;2024-03-23T01:28:45;101194.97;;;15.96;50.39
55656;BME280;41530;52.382;5.270;2024-03-23T01:31:10;101216.81;;;16.10;50.43
55656;BME280;41530;52.382;5.270;2024-03-23T01:33:36;101228.94;;;16.12;50.42
55656;BME280;41530;52.382;5.270;2024-03-23T01:36:02;101166.38;;;15.79;50.59
55656;BME280;41530;52.382;5.270;2024-03-23T01:38:28;101228.56;;;16.17;50.39
55656;BME280;41530;52.382;5.270;2024-03-23T01:40:57;101143.00;;;15.63;50.44
55656;BME280;41530;52.382;5.270;2024-03-23T01:43:23;101167.09;;;15.81;50.47
55656;BME280;41530;52.382;5.270;2024-03-23T01:45:51;101173.25;;;15.82;50.46
55656;BME280;41530;52.382;5.270;2024-03-23T01:48:20;101218.47;;;16.11;50.58
55656;BME280;41530;52.382;5.270;2024-03-23T01:50:46;101167.94;;;15.82;50.48
55656;BME280;41530;52.382;5.270;2024-03-23T01:53:12;101182.78;;;15.94;50.41
55656;BME280;41530;52.382;5.270;2024-03-23T01:55:39;101166.00;;;15.84;50.67
55656;BME280;41530;52.382;5.270;2024-03-23T01:58:04;101155.91;;;15.78;50.82
55656;BME280;41530;52.382;5.270;2024-03-23T02:00:30;101163.84;;;15.78;50.58
55656;BME280;41530;52.382;5.270;2024-03-23T02:02:56;101164.75;;;15.88;50.54
55656;BME280;41530;52.382;5.270;2024-03-23T02:05:21;101158.69;;;15.76;50.50
55656;BME280;41530;52.382;5.270;2024-03-23T02:07:50;101113.53;;;15.57;50.72
55656;BME280;41530;52.382;5.270;2024-03-23T02:10:16;101143.75;;;15.75;50.73
55656;BME280;41530;52.382;5.270;2024-03-23T02:12:42;101120.94;;;15.63;50.65
55656;BME280;41530;52.382;5.270;2024-03-23T02:15:08;101197.19;;;16.01;50.76
55656;BME280;41530;52.382;5.270;2024-03-23T02:17:35;101110.25;;;15.53;50.49
55656;BME280;41530;52.382;5.270;2024-03-23T02:20:02;101184.03;;;15.90;50.22
55656;BME280;41530;52.382;5.270;2024-03-23T02:22:36;101144.28;;;15.69;50.45
55656;BME280;41530;52.382;5.270;2024-03-23T02:25:04;101193.81;;;15.99;50.53
55656;BME280;41530;52.382;5.270;2024-03-23T02:27:30;101189.31;;;15.90;50.33
55656;BME280;41530;52.382;5.270;2024-03-23T02:29:55;101187.50;;;15.90;50.35
55656;BME280;41530;52.382;5.270;2024-03-23T02:32:21;101185.97;;;15.88;50.36
55656;BME280;41530;52.382;5.270;2024-03-23T02:34:46;101180.66;;;15.88;50.05
55656;BME280;41530;52.382;5.270;2024-03-23T02:37:12;101177.56;;;15.83;50.04
55656;BME280;41530;52.382;5.270;2024-03-23T02:39:38;101164.56;;;15.80;50.16
55656;BME280;41530;52.382;5.270;2024-03-23T02:42:04;101172.81;;;15.86;49.60
55656;BME280;41530;52.382;5.270;2024-03-23T02:44:29;101167.94;;;15.82;49.85
55656;BME280;41530;52.382;5.270;2024-03-23T02:46:55;101150.00;;;15.74;49.81
55656;BME280;41530;52.382;5.270;2024-03-23T02:49:20;101143.69;;;15.65;49.69
55656;BME280;41530;52.382;5.270;2024-03-23T02:51:47;101143.44;;;15.68;49.53
55656;BME280;41530;52.382;5.270;2024-03-23T02:54:14;101163.84;;;15.78;49.45
55656;BME280;41530;52.382;5.270;2024-03-23T02:56:40;101165.53;;;15.79;49.49
55656;BME280;41530;52.382;5.270;2024-03-23T02:59:06;101129.44;;;15.57;49.60
55656;BME280;41530;52.382;5.270;2024-03-23T03:01:31;101152.50;;;15.66;49.39
55656;BME280;41530;52.382;5.270;2024-03-23T03:03:57;101150.22;;;15.61;49.41
55656;BME280;41530;52.382;5.270;2024-03-23T03:06:26;101173.88;;;15.74;49.31
55656;BME280;41530;52.382;5.270;2024-03-23T03:08:51;101167.03;;;15.72;49.39
55656;BME280;41530;52.382;5.270;2024-03-23T03:11:17;101155.88;;;15.68;49.22
55656;BME280;41530;52.382;5.270;2024-03-23T03:13:43;101134.88;;;15.55;48.83
55656;BME280;41530;52.382;5.270;2024-03-23T03:16:10;101146.31;;;15.56;48.73
55656;BME280;41530;52.382;5.270;2024-03-23T03:18:35;101158.91;;;15.63;48.75
55656;BME280;41530;52.382;5.270;2024-03-23T03:21:01;101151.31;;;15.59;48.80
55656;BME280;41530;52.382;5.270;2024-03-23T03:23:27;101159.44;;;15.57;48.70
55656;BME280;41530;52.382;5.270;2024-03-23T03:25:53;101151.25;;;15.49;48.52
55656;BME280;41530;52.382;5.270;2024-03-23T03:28:19;101167.63;;;15.54;48.42
55656;BME280;41530;52.382;5.270;2024-03-23T03:30:45;101166.19;;;15.50;48.21
55656;BME280;41530;52.382;5.270;2024-03-23T03:33:11;101151.63;;;15.45;47.65
55656;BME280;41530;52.382;5.270;2024-03-23T03:35:36;101146.50;;;15.43;48.10
55656;BME280;41530;52.382;5.270;2024-03-23T03:38:04;101145.53;;;15.44;48.36
55656;BME280;41530;52.382;5.270;2024-03-23T03:40:30;101132.91;;;15.37;48.02
55656;BME280;41530;52.382;5.270;2024-03-23T03:42:55;101131.56;;;15.42;48.09
55656;BME280;41530;52.382;5.270;2024-03-23T03:45:21;101132.19;;;15.34;48.20
55656;BME280;41530;52.382;5.270;2024-03-23T03:47:47;101135.44;;;15.38;48.05
55656;BME280;41530;52.382;5.270;2024-03-23T03:50:12;101127.72;;;15.35;47.87
55656;BME280;41530;52.382;5.270;2024-03-23T03:52:38;101116.69;;;15.30;47.85
55656;BME280;41530;52.382;5.270;2024-03-23T03:55:13;101115.00;;;15.29;47.88
55656;BME280;41530;52.382;5.270;2024-03-23T03:57:38;101116.53;;;15.31;47.91
55656;BME280;41530;52.382;5.270;2024-03-23T04:00:05;101121.19;;;15.39;48.22
55656;BME280;41530;52.382;5.270;2024-03-23T04:02:30;101117.72;;;15.39;48.08
55656;BME280;41530;52.382;5.270;2024-03-23T04:04:56;101116.03;;;15.38;48.31
55656;BME280;41530;52.382;5.270;2024-03-23T04:07:22;101117.72;;;15.39;48.22
55656;BME280;41530;52.382;5.270;2024-03-23T04:09:49;101101.75;;;15.29;48.61
55656;BME280;41530;52.382;5.270;2024-03-23T04:12:15;101103.44;;;15.30;48.83
55656;BME280;41530;52.382;5.270;2024-03-23T04:14:40;101103.88;;;15.35;48.82
55656;BME280;41530;52.382;5.270;2024-03-23T04:17:06;101093.69;;;15.30;48.58
55656;BME280;41530;52.382;5.270;2024-03-23T04:19:32;101112.53;;;15.37;48.51
55656;BME280;41530;52.382;5.270;2024-03-23T04:21:57;101100.78;;;15.30;48.80
55656;BME280;41530;52.382;5.270;2024-03-23T04:24:23;101100.50;;;15.33;48.76
55656;BME280;41530;52.382;5.270;2024-03-23T04:26:50;101093.53;;;15.32;48.48
55656;BME280;41530;52.382;5.270;2024-03-23T04:29:15;101092.63;;;15.22;48.59
55656;BME280;41530;52.382;5.270;2024-03-23T04:31:41;101112.25;;;15.30;48.57
55656;BME280;41530;52.382;5.270;2024-03-23T04:34:07;101079.22;;;15.14;48.57
55656;BME280;41530;52.382;5.270;2024-03-23T04:36:32;101100.22;;;15.26;48.18
55656;BME280;41530;52.382;5.270;2024-03-23T04:38:59;101100.84;;;15.19;48.23
55656;BME280;41530;52.382;5.270;2024-03-23T04:41:25;101106.13;;;15.19;48.19
55656;BME280;41530;52.382;5.270;2024-03-23T04:43:51;101098.00;;;15.11;48.09
55656;BME280;41530;52.382;5.270;2024-03-23T04:46:17;101102.94;;;15.15;47.88
55656;BME280;41530;52.382;5.270;2024-03-23T04:48:42;101106.31;;;15.17;47.87
55656;BME280;41530;52.382;5.270;2024-03-23T04:51:10;101104.03;;;15.13;48.13
55656;BME280;41530;52.382;5.270;2024-03-23T04:53:39;101098.47;;;15.16;48.08
55656;BME280;41530;52.382;5.270;2024-03-23T04:56:04;101081.66;;;15.06;47.90
55656;BME280;41530;52.382;5.270;2024-03-23T04:58:30;101078.31;;;15.04;48.07
55656;BME280;41530;52.382;5.270;2024-03-23T05:00:56;101103.91;;;15.14;48.39
55656;BME280;41530;52.382;5.270;2024-03-23T05:03:23;101104.63;;;15.16;47.92
55656;BME280;41530;52.382;5.270;2024-03-23T05:05:49;101089.34;;;15.09;48.22
55656;BME280;41530;52.382;5.270;2024-03-23T05:08:15;101092.84;;;15.09;48.24
55656;BME280;41530;52.382;5.270;2024-03-23T05:10:42;101081.66;;;15.06;48.55
55656;BME280;41530;52.382;5.270;2024-03-23T05:13:08;101101.38;;;15.13;48.17
55656;BME280;41530;52.382;5.270;2024-03-23T05:15:34;101093.56;;;15.11;48.12
55656;BME280;41530;52.382;5.270;2024-03-23T05:18:00;101092.00;;;15.09;48.14
55656;BME280;41530;52.382;5.270;2024-03-23T05:20:26;101099.81;;;15.10;48.12
55656;BME280;41530;52.382;5.270;2024-03-23T05:22:51;101081.59;;;14.96;48.12
55656;BME280;41530;52.382;5.270;2024-03-23T05:25:17;101102.28;;;15.02;47.75
55656;BME280;41530;52.382;5.270;2024-03-23T05:27:43;101115.66;;;15.01;48.01
55656;BME280;41530;52.382;5.270;2024-03-23T05:30:08;101112.28;;;14.98;47.85
55656;BME280;41530;52.382;5.270;2024-03-23T05:32:34;101090.31;;;14.87;47.59
55656;BME280;41530;52.382;5.270;2024-03-23T05:35:00;101100.81;;;14.88;47.81
55656;BME280;41530;52.382;5.270;2024-03-23T05:37:26;101091.53;;;14.83;47.76
55656;BME280;41530;52.382;5.270;2024-03-23T05:39:52;101095.63;;;14.87;47.39
55656;BME280;41530;52.382;5.270;2024-03-23T05:42:17;101101.88;;;14.86;47.59
55656;BME280;41530;52.382;5.270;2024-03-23T05:44:44;101080.03;;;14.73;46.86
55656;BME280;41530;52.382;5.270;2024-03-23T05:47:11;101090.09;;;14.79;46.99
55656;BME280;41530;52.382;5.270;2024-03-23T05:49:38;101087.03;;;14.74;47.12
55656;BME280;41530;52.382;5.270;2024-03-23T05:52:04;101084.25;;;14.75;47.29
55656;BME280;41530;52.382;5.270;2024-03-23T05:54:30;101068.59;;;14.72;47.35
55656;BME280;41530;52.382;5.270;2024-03-23T05:56:55;101076.03;;;14.78;47.79
55656;BME280;41530;52.382;5.270;2024-03-23T05:59:21;101081.31;;;14.78;47.48
55656;BME280;41530;52.382;5.270;2024-03-23T06:01:47;101089.63;;;14.85;47.93
55656;BME280;41530;52.382;5.270;2024-03-23T06:04:13;101079.38;;;14.80;47.77
55656;BME280;41530;52.382;5.270;2024-03-23T06:06:42;101084.31;;;14.85;47.57
55656;BME280;41530;52.382;5.270;2024-03-23T06:09:07;101068.38;;;14.75;47.95
55656;BME280;41530;52.382;5.270;2024-03-23T06:11:33;101077.59;;;14.81;47.86
55656;BME280;41530;52.382;5.270;2024-03-23T06:13:58;101073.78;;;14.74;47.86
55656;BME280;41530;52.382;5.270;2024-03-23T06:16:24;101066.94;;;14.71;47.94
55656;BME280;41530;52.382;5.270;2024-03-23T06:18:50;101088.66;;;14.86;47.95
55656;BME280;41530;52.382;5.270;2024-03-23T06:21:16;101074.09;;;14.80;47.86
55656;BME280;41530;52.382;5.270;2024-03-23T06:23:42;101089.63;;;14.85;47.93
55656;BME280;41530;52.382;5.270;2024-03-23T06:26:08;101070.03;;;14.76;48.01
55656;BME280;41530;52.382;5.270;2024-03-23T06:28:34;101085.41;;;14.82;48.00
55656;BME280;41530;52.382;5.270;2024-03-23T06:30:59;101086.50;;;14.80;47.70
55656;BME280;41530;52.382;5.270;2024-03-23T06:33:25;101085.41;;;14.82;47.51
55656;BME280;41530;52.382;5.270;2024-03-23T06:35:51;101081.91;;;14.82;47.31
55656;BME280;41530;52.382;5.270;2024-03-23T06:38:18;101081.31;;;14.78;46.91
55656;BME280;41530;52.382;5.270;2024-03-23T06:40:44;101083.59;;;14.83;46.94
55656;BME280;41530;52.382;5.270;2024-03-23T06:43:13;101084.69;;;14.80;47.13
55656;BME280;41530;52.382;5.270;2024-03-23T06:45:39;101086.25;;;14.83;46.78
55656;BME280;41530;52.382;5.270;2024-03-23T06:48:05;101069.31;;;14.74;46.88
55656;BME280;41530;52.382;5.270;2024-03-23T06:50:33;101085.16;;;14.85;46.50
55656;BME280;41530;52.382;5.270;2024-03-23T06:52:59;101084.19;;;14.86;46.24
55656;BME280;41530;52.382;5.270;2024-03-23T06:55:28;101063.38;;;14.82;46.53
55656;BME280;41530;52.382;5.270;2024-03-23T06:57:53;101068.81;;;14.80;46.48
55656;BME280;41530;52.382;5.270;2024-03-23T07:00:19;101072.75;;;14.86;46.20
55656;BME280;41530;52.382;5.270;2024-03-23T07:02:45;101060.00;;;14.80;46.12
55656;BME280;41530;52.382;5.270;2024-03-23T07:05:10;101071.44;;;14.80;46.10
55656;BME280;41530;52.382;5.270;2024-03-23T07:07:38;101080.88;;;14.94;46.23
55656;BME280;41530;52.382;5.270;2024-03-23T07:10:05;101082.31;;;14.98;46.44
55656;BME280;41530;52.382;5.270;2024-03-23T07:12:31;101067.50;;;14.95;46.77
55656;BME280;41530;52.382;5.270;2024-03-23T07:14:57;101074.66;;;15.05;46.75
55656;BME280;41530;52.382;5.270;2024-03-23T07:17:22;101083.22;;;15.08;46.94
55656;BME280;41530;52.382;5.270;2024-03-23T07:19:48;101072.34;;;15.11;46.77
55656;BME280;41530;52.382;5.270;2024-03-23T07:22:14;101083.22;;;15.29;46.75
55656;BME280;41530;52.382;5.270;2024-03-23T07:24:40;101083.25;;;15.39;46.59
55656;BME280;41530;52.382;5.270;2024-03-23T07:27:05;101060.31;;;15.28;46.67
55656;BME280;41530;52.382;5.270;2024-03-23T07:29:38;101065.22;;;15.32;46.53
55656;BME280;41530;52.382;5.270;2024-03-23T07:32:04;101074.31;;;15.40;46.76
55656;BME280;41530;52.382;5.270;2024-03-23T07:34:29;101072.91;;;15.36;46.71
55656;BME280;41530;52.382;5.270;2024-03-23T07:36:55;101076.66;;;15.33;46.73
55656;BME280;41530;52.382;5.270;2024-03-23T07:39:21;101063.97;;;15.37;46.52
55656;BME280;41530;52.382;5.270;2024-03-23T07:41:46;101073.25;;;15.52;46.53
55656;BME280;41530;52.382;5.270;2024-03-23T07:44:12;101069.91;;;15.50;46.70
55656;BME280;41530;52.382;5.270;2024-03-23T07:46:38;101084.47;;;15.55;46.54
55656;BME280;41530;52.382;5.270;2024-03-23T07:49:06;101076.88;;;15.51;46.42
55656;BME280;41530;52.382;5.270;2024-03-23T07:51:32;101061.50;;;15.45;46.49
55656;BME280;41530;52.382;5.270;2024-03-23T07:53:59;101061.56;;;15.54;46.63
55656;BME280;41530;52.382;5.270;2024-03-23T07:56:24;101065.84;;;15.76;46.15
55656;BME280;41530;52.382;5.270;2024-03-23T07:58:50;101069.78;;;15.82;46.27
55656;BME280;41530;52.382;5.270;2024-03-23T08:01:16;101062.94;;;15.89;46.06
55656;BME280;41530;52.382;5.270;2024-03-23T08:03:45;101071.38;;;16.13;46.63
55656;BME280;41530;52.382;5.270;2024-03-23T08:06:13;101070.72;;;16.21;46.90
55656;BME280;41530;52.382;5.270;2024-03-23T08:08:41;101072.53;;;16.39;46.96
55656;BME280;41530;52.382;5.270;2024-03-23T08:11:07;101050.59;;;16.47;46.78
55656;BME280;41530;52.382;5.270;2024-03-23T08:13:34;101057.84;;;16.55;46.42
55656;BME280;41530;52.382;5.270;2024-03-23T08:16:01;101066.81;;;16.54;46.68
55656;BME280;41530;52.382;5.270;2024-03-23T08:18:27;101066.13;;;16.71;46.18
55656;BME280;41530;52.382;5.270;2024-03-23T08:21:03;101070.28;;;16.93;46.03
55656;BME280;41530;52.382;5.270;2024-03-23T08:23:30;101060.91;;;17.08;45.85
55656;BME280;41530;52.382;5.270;2024-03-23T08:26:00;101059.38;;;17.05;45.96
55656;BME280;41530;52.382;5.270;2024-03-23T08:28:26;101055.72;;;17.06;46.04
55656;BME280;41530;52.382;5.270;2024-03-23T08:30:55;101049.47;;;16.98;45.59
55656;BME280;41530;52.382;5.270;2024-03-23T08:33:22;101066.00;;;17.38;45.12
55656;BME280;41530;52.382;5.270;2024-03-23T08:35:57;101065.47;;;17.62;45.05
55656;BME280;41530;52.382;5.270;2024-03-23T08:38:24;101064.03;;;17.77;45.39
55656;BME280;41530;52.382;5.270;2024-03-23T08:41:16;101055.50;;;18.01;43.47
55656;BME280;41530;52.382;5.270;2024-03-23T08:43:42;101054.03;;;17.89;44.82
55656;BME280;41530;52.382;5.270;2024-03-23T08:46:11;101057.03;;;17.76;44.50
55656;BME280;41530;52.382;5.270;2024-03-23T08:48:44;101063.25;;;17.67;44.80
55656;BME280;41530;52.382;5.270;2024-03-23T08:51:16;101066.47;;;17.71;44.65
55656;BME280;41530;52.382;5.270;2024-03-23T08:53:43;101055.63;;;18.00;44.32
55656;BME280;41530;52.382;5.270;2024-03-23T08:56:09;101039.09;;;17.78;45.00
55656;BME280;41530;52.382;5.270;2024-03-23T08:58:36;101058.97;;;17.84;45.05
55656;BME280;41530;52.382;5.270;2024-03-23T09:01:10;101063.50;;;17.74;44.73
55656;BME280;41530;52.382;5.270;2024-03-23T09:03:36;101061.72;;;17.65;45.55
55656;BME280;41530;52.382;5.270;2024-03-23T09:06:07;101070.78;;;17.62;45.47
55656;BME280;41530;52.382;5.270;2024-03-23T09:08:33;101053.78;;;17.45;46.02
55656;BME280;41530;52.382;5.270;2024-03-23T09:11:03;101073.66;;;17.51;46.02
55656;BME280;41530;52.382;5.270;2024-03-23T09:13:34;101053.75;;;17.65;46.00
55656;BME280;41530;52.382;5.270;2024-03-23T09:16:01;101043.81;;;17.57;46.13
55656;BME280;41530;52.382;5.270;2024-03-23T09:18:27;101052.84;;;17.74;45.99
55656;BME280;41530;52.382;5.270;2024-03-23T09:20:53;101009.97;;;17.50;46.33
55656;BME280;41530;52.382;5.270;2024-03-23T09:23:21;101047.00;;;17.70;46.26
55656;BME280;41530;52.382;5.270;2024-03-23T09:25:46;101046.75;;;17.64;46.69
55656;BME280;41530;52.382;5.270;2024-03-23T09:28:12;101019.13;;;17.37;46.62
55656;BME280;41530;52.382;5.270;2024-03-23T09:30:38;101060.31;;;17.61;46.27
55656;BME280;41530;52.382;5.270;2024-03-23T09:33:08;101018.69;;;17.42;46.05
55656;BME280;41530;52.382;5.270;2024-03-23T09:35:50;101067.06;;;17.55;45.55
55656;BME280;41530;52.382;5.270;2024-03-23T09:38:15;101085.41;;;17.49;45.92
55656;BME280;41530;52.382;5.270;2024-03-23T09:40:42;101087.00;;;17.41;45.72
55656;BME280;41530;52.382;5.270;2024-03-23T09:43:09;101079.44;;;17.37;45.53
55656;BME280;41530;52.382;5.270;2024-03-23T09:45:38;101069.53;;;17.29;45.78
55656;BME280;41530;52.382;5.270;2024-03-23T09:48:04;101084.78;;;17.27;46.27
55656;BME280;41530;52.382;5.270;2024-03-23T09:50:31;101073.03;;;17.20;46.08
55656;BME280;41530;52.382;5.270;2024-03-23T09:53:23;101079.66;;;17.16;46.32
55656;BME280;41530;52.382;5.270;2024-03-23T09:56:13;101065.94;;;17.11;46.31
55656;BME280;41530;52.382;5.270;2024-03-23T09:58:41;101062.41;;;17.30;46.27
55656;BME280;41530;52.382;5.270;2024-03-23T10:01:07;101067.03;;;17.18;46.61
55656;BME280;41530;52.382;5.270;2024-03-23T10:03:42;101069.41;;;17.58;45.52
55656;BME280;41530;52.382;5.270;2024-03-23T10:06:08;101063.97;;;17.87;45.53
55656;BME280;41530;52.382;5.270;2024-03-23T10:08:33;101052.94;;;18.09;45.19
55656;BME280;41530;52.382;5.270;2024-03-23T10:11:21;101056.47;;;18.00;44.94
55656;BME280;41530;52.382;5.270;2024-03-23T10:13:47;101051.91;;;17.93;45.99
55656;BME280;41530;52.382;5.270;2024-03-23T10:16:23;101055.75;;;18.08;45.11
55656;BME280;41530;52.382;5.270;2024-03-23T10:18:49;101065.91;;;17.95;45.97
55656;BME280;41530;52.382;5.270;2024-03-23T10:21:16;101059.50;;;17.88;46.02
55656;BME280;41530;52.382;5.270;2024-03-23T10:23:42;101060.09;;;17.82;46.21
55656;BME280;41530;52.382;5.270;2024-03-23T10:26:18;101059.69;;;17.76;46.06
55656;BME280;41530;52.382;5.270;2024-03-23T10:28:54;101054.00;;;18.16;45.50
55656;BME280;41530;52.382;5.270;2024-03-23T10:31:20;101046.31;;;17.96;46.21
55656;BME280;41530;52.382;5.270;2024-03-23T10:33:47;101048.69;;;17.89;46.62
55656;BME280;41530;52.382;5.270;2024-03-23T10:36:13;101044.66;;;17.85;46.30
55656;BME280;41530;52.382;5.270;2024-03-23T10:38:43;101034.91;;;18.21;45.53
55656;BME280;41530;52.382;5.270;2024-03-23T10:41:10;101041.06;;;18.39;45.66
55656;BME280;41530;52.382;5.270;2024-03-23T10:43:37;101036.50;;;18.32;45.85
55656;BME280;41530;52.382;5.270;2024-03-23T10:46:03;101034.28;;;18.27;45.86
55656;BME280;41530;52.382;5.270;2024-03-23T10:48:29;101046.56;;;18.20;46.23
55656;BME280;41530;52.382;5.270;2024-03-23T10:50:55;101057.41;;;18.09;46.27
55656;BME280;41530;52.382;5.270;2024-03-23T10:53:26;101051.84;;;18.02;46.02
55656;BME280;41530;52.382;5.270;2024-03-23T10:55:54;101074.88;;;17.94;46.34
55656;BME280;41530;52.382;5.270;2024-03-23T10:58:24;101051.81;;;17.85;46.47
55656;BME280;41530;52.382;5.270;2024-03-23T11:00:52;101053.25;;;17.79;46.64
55656;BME280;41530;52.382;5.270;2024-03-23T11:05:58;101046.47;;;17.67;47.00
55656;BME280;41530;52.382;5.270;2024-03-23T11:08:37;101043.34;;;17.62;46.66
55656;BME280;41530;52.382;5.270;2024-03-23T11:11:21;101046.47;;;17.67;46.44
55656;BME280;41530;52.382;5.270;2024-03-23T11:13:50;101039.84;;;17.61;47.00
55656;BME280;41530;52.382;5.270;2024-03-23T11:16:23;101039.31;;;17.67;46.51
55656;BME280;41530;52.382;5.270;2024-03-23T11:18:50;101035.34;;;17.71;46.83
55656;BME280;41530;52.382;5.270;2024-03-23T11:21:54;101039.53;;;17.74;46.38
55656;BME280;41530;52.382;5.270;2024-03-23T11:24:21;101040.25;;;17.76;46.84
55656;BME280;41530;52.382;5.270;2024-03-23T11:26:48;101042.91;;;17.76;46.88
55656;BME280;41530;52.382;5.270;2024-03-23T11:29:15;101035.91;;;17.75;47.10
55656;BME280;41530;52.382;5.270;2024-03-23T11:31:51;101028.75;;;17.75;46.42
55656;BME280;41530;52.382;5.270;2024-03-23T11:34:18;101043.19;;;17.73;46.97
55656;BME280;41530;52.382;5.270;2024-03-23T11:36:45;101030.72;;;17.73;46.93
55656;BME280;41530;52.382;5.270;2024-03-23T11:41:48;101018.41;;;17.72;46.63
55656;BME280;41530;52.382;5.270;2024-03-23T11:44:16;101018.88;;;17.68;47.01
55656;BME280;41530;52.382;5.270;2024-03-23T11:46:42;101027.00;;;17.66;47.00
55656;BME280;41530;52.382;5.270;2024-03-23T11:49:22;101018.31;;;17.64;46.79
55656;BME280;41530;52.382;5.270;2024-03-23T11:51:49;101015.78;;;17.63;47.17
55656;BME280;41530;52.382;5.270;2024-03-23T11:54:14;101018.56;;;17.61;46.96
55656;BME280;41530;52.382;5.270;2024-03-23T11:56:40;101021.22;;;17.61;47.27
55656;BME280;41530;52.382;5.270;2024-03-23T11:59:08;101011.56;;;17.60;47.00
55656;BME280;41530;52.382;5.270;2024-03-23T12:01:34;101021.53;;;17.58;47.26
55656;BME280;41530;52.382;5.270;2024-03-23T12:04:00;101018.19;;;17.56;47.14
55656;BME280;41530;52.382;5.270;2024-03-23T12:06:25;101019.31;;;17.54;47.39
55656;BME280;41530;52.382;5.270;2024-03-23T12:08:51;101010.50;;;17.53;47.37
55656;BME280;41530;52.382;5.270;2024-03-23T12:11:17;101010.66;;;17.52;47.32
55656;BME280;41530;52.382;5.270;2024-03-23T12:13:44;101023.09;;;17.51;47.54
55656;BME280;41530;52.382;5.270;2024-03-23T12:16:20;101017.09;;;17.49;47.26
55656;BME280;41530;52.382;5.270;2024-03-23T12:18:49;101017.09;;;17.49;47.29
55656;BME280;41530;52.382;5.270;2024-03-23T12:21:17;101015.41;;;17.48;47.51
55656;BME280;41530;52.382;5.270;2024-03-23T12:23:43;101027.88;;;17.48;47.45
55656;BME280;41530;52.382;5.270;2024-03-23T12:26:13;101003.59;;;17.33;47.56
55656;BME280;41530;52.382;5.270;2024-03-23T12:28:39;101022.31;;;17.41;47.52
55656;BME280;41530;52.382;5.270;2024-03-23T12:31:05;101050.75;;;17.40;47.62
55656;BME280;41530;52.382;5.270;2024-03-23T12:33:31;101035.06;;;17.37;47.53
55656;BME280;41530;52.382;5.270;2024-03-23T12:35:56;101042.50;;;17.34;47.58
55656;BME280;41530;52.382;5.270;2024-03-23T12:38:22;101038.28;;;17.31;47.60
55656;BME280;41530;52.382;5.270;2024-03-23T12:40:50;101022.81;;;17.27;47.61
55656;BME280;41530;52.382;5.270;2024-03-23T12:43:17;101024.63;;;17.26;47.76
55656;BME280;41530;52.382;5.270;2024-03-23T12:45:46;101030.91;;;17.25;47.33
55656;BME280;41530;52.382;5.270;2024-03-23T12:48:12;101028.53;;;17.22;47.66
55656;BME280;41530;52.382;5.270;2024-03-23T12:50:38;101023.38;;;17.21;47.76
55656;BME280;41530;52.382;5.270;2024-03-23T12:53:04;101023.38;;;17.21;47.74
55656;BME280;41530;52.382;5.270;2024-03-23T12:55:29;101018.50;;;17.16;47.61
55656;BME280;41530;52.382;5.270;2024-03-23T12:57:55;101006.06;;;17.17;47.72
55656;BME280;41530;52.382;5.270;2024-03-23T13:00:20;101013.03;;;17.18;47.78
55656;BME280;41530;52.382;5.270;2024-03-23T13:02:46;101004.06;;;17.19;47.67
55656;BME280;41530;52.382;5.270;2024-03-23T13:05:12;101002.94;;;17.21;47.86
55656;BME280;41530;52.382;5.270;2024-03-23T13:07:37;101004.75;;;17.21;47.88
55656;BME280;41530;52.382;5.270;2024-03-23T13:10:05;100998.59;;;17.20;47.86
55656;BME280;41530;52.382;5.270;2024-03-23T13:12:31;101002.66;;;17.24;48.03
55656;BME280;41530;52.382;5.270;2024-03-23T13:15:00;100980.81;;;17.21;48.01
55656;BME280;41530;52.382;5.270;2024-03-23T13:17:41;100994.25;;;17.29;48.13
55656;BME280;41530;52.382;5.270;2024-03-23T13:20:17;100976.22;;;17.23;48.24
55656;BME280;41530;52.382;5.270;2024-03-23T13:22:46;100989.78;;;17.29;48.32
55656;BME280;41530;52.382;5.270;2024-03-23T13:25:13;101003.72;;;17.31;48.46
55656;BME280;41530;52.382;5.270;2024-03-23T13:27:42;100982.38;;;17.23;48.18
55656;BME280;41530;52.382;5.270;2024-03-23T13:30:08;100995.09;;;17.29;48.44
55656;BME280;41530;52.382;5.270;2024-03-23T13:32:35;100998.59;;;17.30;48.25
55656;BME280;41530;52.382;5.270;2024-03-23T13:35:05;100966.69;;;17.20;48.42
55656;BME280;41530;52.382;5.270;2024-03-23T13:37:32;100985.56;;;17.27;48.50
55656;BME280;41530;52.382;5.270;2024-03-23T13:39:57;100986.50;;;17.35;48.44
55656;BME280;41530;52.382;5.270;2024-03-23T13:42:23;100979.38;;;17.36;48.48
55656;BME280;41530;52.382;5.270;2024-03-23T13:44:51;100974.59;;;17.39;48.48
55656;BME280;41530;52.382;5.270;2024-03-23T13:47:18;100969.13;;;17.41;48.66